sensor_id;sensor_type;location;lat;lon;timestamp;P1;durP1;ratioP1;P2;durP2;ratioP2
40252;SDS011;25972;51.854;4.534;2022-10-31T00:03:50;3.47;;;1.80;;
40252;SDS011;25972;51.854;4.534;2022-10-31T00:06:16;5.00;;;2.10;;
40252;SDS011;25972;51.854;4.534;2022-10-31T00:08:45;5.60;;;2.15;;
40252;SDS011;25972;51.854;4.534;2022-10-31T00:11:12;6.13;;;2.53;;
40252;SDS011;25972;51.854;4.534;2022-10-31T00:13:38;6.32;;;2.28;;
40252;SDS011;25972;51.854;4.534;2022-10-31T00:16:04;6.85;;;2.30;;
40252;SDS011;25972;51.854;4.534;2022-10-31T00:18:30;7.07;;;2.40;;
40252;SDS011;25972;51.854;4.534;2022-10-31T00:21:02;6.03;;;2.58;;
40252;SDS011;25972;51.854;4.534;2022-10-31T00:23:29;6.10;;;2.33;;
40252;SDS011;25972;51.854;4.534;2022-10-31T00:25:59;6.88;;;2.50;;
40252;SDS011;25972;51.854;4.534;2022-10-31T00:28:26;7.88;;;2.42;;
40252;SDS011;25972;51.854;4.534;2022-10-31T00:30:52;8.20;;;2.47;;
40252;SDS011;25972;51.854;4.534;2022-10-31T00:33:18;7.68;;;2.70;;
40252;SDS011;25972;51.854;4.534;2022-10-31T00:35:48;7.50;;;2.53;;
40252;SDS011;25972;51.854;4.534;2022-10-31T00:38:15;6.80;;;3.13;;
40252;SDS011;25972;51.854;4.534;2022-10-31T00:40:41;6.03;;;2.58;;
40252;SDS011;25972;51.854;4.534;2022-10-31T00:43:07;8.80;;;2.90;;
40252;SDS011;25972;51.854;4.534;2022-10-31T00:45:33;7.80;;;3.38;;
40252;SDS011;25972;51.854;4.534;2022-10-31T00:47:59;6.68;;;3.17;;
40252;SDS011;25972;51.854;4.534;2022-10-31T00:50:25;8.77;;;3.30;;
40252;SDS011;25972;51.854;4.534;2022-10-31T00:52:51;7.47;;;2.72;;
40252;SDS011;25972;51.854;4.534;2022-10-31T00:55:16;9.55;;;3.65;;
40252;SDS011;25972;51.854;4.534;2022-10-31T00:57:42;8.40;;;3.50;;
40252;SDS011;25972;51.854;4.534;2022-10-31T01:00:10;7.78;;;3.40;;
40252;SDS011;25972;51.854;4.534;2022-10-31T01:02:36;8.43;;;3.67;;
40252;SDS011;25972;51.854;4.534;2022-10-31T01:05:02;7.32;;;3.33;;
40252;SDS011;25972;51.854;4.534;2022-10-31T01:07:28;6.90;;;3.58;;
40252;SDS011;25972;51.854;4.534;2022-10-31T01:09:54;7.95;;;3.58;;
40252;SDS011;25972;51.854;4.534;2022-10-31T01:12:21;11.50;;;4.32;;
40252;SDS011;25972;51.854;4.534;2022-10-31T01:14:46;9.50;;;3.60;;
40252;SDS011;25972;51.854;4.534;2022-10-31T01:17:12;9.63;;;3.65;;
40252;SDS011;25972;51.854;4.534;2022-10-31T01:19:39;8.68;;;3.88;;
40252;SDS011;25972;51.854;4.534;2022-10-31T01:22:04;11.15;;;3.35;;
40252;SDS011;25972;51.854;4.534;2022-10-31T01:24:30;9.82;;;3.67;;
40252;SDS011;25972;51.854;4.534;2022-10-31T01:26:57;7.85;;;3.47;;
40252;SDS011;25972;51.854;4.534;2022-10-31T01:29:22;8.73;;;3.83;;
40252;SDS011;25972;51.854;4.534;2022-10-31T01:31:48;7.95;;;3.47;;
40252;SDS011;25972;51.854;4.534;2022-10-31T01:34:15;10.82;;;3.83;;
40252;SDS011;25972;51.854;4.534;2022-10-31T01:36:42;8.75;;;3.30;;
40252;SDS011;25972;51.854;4.534;2022-10-31T01:39:14;10.85;;;3.90;;
40252;SDS011;25972;51.854;4.534;2022-10-31T01:41:41;9.95;;;4.22;;
40252;SDS011;25972;51.854;4.534;2022-10-31T01:46:43;7.38;;;3.42;;
40252;SDS011;25972;51.854;4.534;2022-10-31T01:52:03;9.82;;;4.15;;
40252;SDS011;25972;51.854;4.534;2022-10-31T01:54:32;8.68;;;3.97;;
40252;SDS011;25972;51.854;4.534;2022-10-31T01:57:02;9.68;;;4.40;;
40252;SDS011;25972;51.854;4.534;2022-10-31T01:59:31;9.35;;;4.60;;
40252;SDS011;25972;51.854;4.534;2022-10-31T02:02:01;12.25;;;4.50;;
40252;SDS011;25972;51.854;4.534;2022-10-31T02:04:27;11.00;;;4.97;;
40252;SDS011;25972;51.854;4.534;2022-10-31T02:06:55;10.13;;;4.72;;
40252;SDS011;25972;51.854;4.534;2022-10-31T02:09:28;10.52;;;4.93;;
40252;SDS011;25972;51.854;4.534;2022-10-31T02:11:57;13.00;;;5.63;;
40252;SDS011;25972;51.854;4.534;2022-10-31T02:14:25;10.20;;;5.72;;
40252;SDS011;25972;51.854;4.534;2022-10-31T02:16:53;12.75;;;5.50;;
40252;SDS011;25972;51.854;4.534;2022-10-31T02:19:31;12.05;;;5.93;;
40252;SDS011;25972;51.854;4.534;2022-10-31T02:38:14;13.48;;;5.90;;
40252;SDS011;25972;51.854;4.534;2022-10-31T02:43:58;15.05;;;6.70;;
40252;SDS011;25972;51.854;4.534;2022-10-31T02:47:27;16.17;;;6.88;;
40252;SDS011;25972;51.854;4.534;2022-10-31T02:52:20;16.35;;;7.32;;
40252;SDS011;25972;51.854;4.534;2022-10-31T02:54:47;15.13;;;7.28;;
40252;SDS011;25972;51.854;4.534;2022-10-31T02:57:13;18.88;;;7.47;;
40252;SDS011;25972;51.854;4.534;2022-10-31T02:59:47;15.07;;;7.38;;
40252;SDS011;25972;51.854;4.534;2022-10-31T03:08:06;17.92;;;8.18;;
40252;SDS011;25972;51.854;4.534;2022-10-31T03:13:35;11.85;;;7.28;;
40252;SDS011;25972;51.854;4.534;2022-10-31T03:24:34;19.10;;;8.15;;
40252;SDS011;25972;51.854;4.534;2022-10-31T03:27:03;15.75;;;7.75;;
40252;SDS011;25972;51.854;4.534;2022-10-31T03:29:32;19.48;;;8.40;;
40252;SDS011;25972;51.854;4.534;2022-10-31T03:32:07;16.42;;;8.18;;
40252;SDS011;25972;51.854;4.534;2022-10-31T03:34:37;16.15;;;8.40;;
40252;SDS011;25972;51.854;4.534;2022-10-31T03:37:06;17.98;;;8.60;;
40252;SDS011;25972;51.854;4.534;2022-10-31T03:39:34;17.88;;;8.93;;
40252;SDS011;25972;51.854;4.534;2022-10-31T03:42:18;15.73;;;8.48;;
40252;SDS011;25972;51.854;4.534;2022-10-31T03:44:58;17.30;;;8.77;;
40252;SDS011;25972;51.854;4.534;2022-10-31T03:47:40;17.17;;;8.55;;
40252;SDS011;25972;51.854;4.534;2022-10-31T03:50:09;19.08;;;8.85;;
40252;SDS011;25972;51.854;4.534;2022-10-31T03:55:10;18.55;;;8.30;;
40252;SDS011;25972;51.854;4.534;2022-10-31T04:00:36;16.45;;;9.07;;
40252;SDS011;25972;51.854;4.534;2022-10-31T04:03:09;16.95;;;8.60;;
40252;SDS011;25972;51.854;4.534;2022-10-31T04:05:59;18.67;;;9.23;;
40252;SDS011;25972;51.854;4.534;2022-10-31T04:08:30;17.30;;;8.50;;
40252;SDS011;25972;51.854;4.534;2022-10-31T04:10:59;15.02;;;8.18;;
40252;SDS011;25972;51.854;4.534;2022-10-31T04:13:27;16.50;;;9.15;;
40252;SDS011;25972;51.854;4.534;2022-10-31T04:16:07;18.90;;;9.05;;
40252;SDS011;25972;51.854;4.534;2022-10-31T04:18:34;17.98;;;9.10;;
40252;SDS011;25972;51.854;4.534;2022-10-31T04:21:05;17.23;;;8.95;;
40252;SDS011;25972;51.854;4.534;2022-10-31T04:23:33;14.98;;;8.77;;
40252;SDS011;25972;51.854;4.534;2022-10-31T04:26:08;19.77;;;9.40;;
40252;SDS011;25972;51.854;4.534;2022-10-31T04:28:36;15.77;;;8.70;;
40252;SDS011;25972;51.854;4.534;2022-10-31T04:31:02;20.00;;;10.02;;
40252;SDS011;25972;51.854;4.534;2022-10-31T04:33:29;18.70;;;9.40;;
40252;SDS011;25972;51.854;4.534;2022-10-31T04:35:54;22.17;;;9.48;;
40252;SDS011;25972;51.854;4.534;2022-10-31T04:38:20;16.90;;;9.20;;
40252;SDS011;25972;51.854;4.534;2022-10-31T04:40:48;19.48;;;9.60;;
40252;SDS011;25972;51.854;4.534;2022-10-31T04:43:36;19.90;;;9.43;;
40252;SDS011;25972;51.854;4.534;2022-10-31T04:46:02;17.65;;;9.02;;
40252;SDS011;25972;51.854;4.534;2022-10-31T04:48:29;20.20;;;8.98;;
40252;SDS011;25972;51.854;4.534;2022-10-31T04:50:58;21.77;;;9.07;;
40252;SDS011;25972;51.854;4.534;2022-10-31T04:53:25;21.10;;;9.95;;
40252;SDS011;25972;51.854;4.534;2022-10-31T04:56:17;18.27;;;8.68;;
40252;SDS011;25972;51.854;4.534;2022-10-31T04:58:46;17.55;;;8.77;;
40252;SDS011;25972;51.854;4.534;2022-10-31T05:01:12;18.63;;;9.13;;
40252;SDS011;25972;51.854;4.534;2022-10-31T05:03:38;21.05;;;9.65;;
40252;SDS011;25972;51.854;4.534;2022-10-31T05:06:07;22.30;;;9.23;;
40252;SDS011;25972;51.854;4.534;2022-10-31T05:08:33;19.63;;;9.68;;
40252;SDS011;25972;51.854;4.534;2022-10-31T05:11:03;20.98;;;10.38;;
40252;SDS011;25972;51.854;4.534;2022-10-31T05:13:30;18.83;;;9.15;;
40252;SDS011;25972;51.854;4.534;2022-10-31T05:16:11;18.60;;;10.38;;
40252;SDS011;25972;51.854;4.534;2022-10-31T05:18:49;18.90;;;9.45;;
40252;SDS011;25972;51.854;4.534;2022-10-31T05:21:49;17.38;;;8.80;;
40252;SDS011;25972;51.854;4.534;2022-10-31T05:24:17;20.05;;;9.60;;
40252;SDS011;25972;51.854;4.534;2022-10-31T05:26:46;18.05;;;9.68;;
40252;SDS011;25972;51.854;4.534;2022-10-31T05:29:12;19.75;;;9.73;;
40252;SDS011;25972;51.854;4.534;2022-10-31T05:31:38;17.02;;;9.25;;
40252;SDS011;25972;51.854;4.534;2022-10-31T05:34:06;19.70;;;10.20;;
40252;SDS011;25972;51.854;4.534;2022-10-31T05:36:44;19.40;;;9.65;;
40252;SDS011;25972;51.854;4.534;2022-10-31T05:39:20;17.80;;;9.40;;
40252;SDS011;25972;51.854;4.534;2022-10-31T05:41:48;18.58;;;9.05;;
40252;SDS011;25972;51.854;4.534;2022-10-31T05:44:24;20.88;;;10.57;;
40252;SDS011;25972;51.854;4.534;2022-10-31T05:47:13;21.10;;;9.32;;
40252;SDS011;25972;51.854;4.534;2022-10-31T05:49:54;22.92;;;9.50;;
40252;SDS011;25972;51.854;4.534;2022-10-31T05:52:38;16.95;;;10.18;;
40252;SDS011;25972;51.854;4.534;2022-10-31T05:55:17;24.10;;;10.00;;
40252;SDS011;25972;51.854;4.534;2022-10-31T05:57:57;26.25;;;10.68;;
40252;SDS011;25972;51.854;4.534;2022-10-31T06:00:24;22.25;;;11.30;;
40252;SDS011;25972;51.854;4.534;2022-10-31T06:02:57;20.42;;;10.50;;
40252;SDS011;25972;51.854;4.534;2022-10-31T06:05:47;22.70;;;10.70;;
40252;SDS011;25972;51.854;4.534;2022-10-31T06:08:13;27.30;;;12.13;;
40252;SDS011;25972;51.854;4.534;2022-10-31T06:10:40;25.27;;;12.55;;
40252;SDS011;25972;51.854;4.534;2022-10-31T06:13:06;29.92;;;12.52;;
40252;SDS011;25972;51.854;4.534;2022-10-31T06:15:55;25.15;;;12.00;;
40252;SDS011;25972;51.854;4.534;2022-10-31T06:18:24;20.67;;;11.60;;
40252;SDS011;25972;51.854;4.534;2022-10-31T06:20:52;26.60;;;12.55;;
40252;SDS011;25972;51.854;4.534;2022-10-31T06:23:18;28.15;;;13.48;;
40252;SDS011;25972;51.854;4.534;2022-10-31T06:25:49;21.50;;;11.25;;
40252;SDS011;25972;51.854;4.534;2022-10-31T06:28:15;28.73;;;12.48;;
40252;SDS011;25972;51.854;4.534;2022-10-31T06:30:51;31.95;;;12.80;;
40252;SDS011;25972;51.854;4.534;2022-10-31T06:33:18;26.10;;;13.52;;
40252;SDS011;25972;51.854;4.534;2022-10-31T06:35:53;27.88;;;12.57;;
40252;SDS011;25972;51.854;4.534;2022-10-31T06:38:19;24.05;;;13.50;;
40252;SDS011;25972;51.854;4.534;2022-10-31T06:40:45;29.42;;;14.10;;
40252;SDS011;25972;51.854;4.534;2022-10-31T06:43:20;34.20;;;14.93;;
40252;SDS011;25972;51.854;4.534;2022-10-31T06:45:47;32.50;;;14.23;;
40252;SDS011;25972;51.854;4.534;2022-10-31T06:48:21;35.63;;;15.02;;
40252;SDS011;25972;51.854;4.534;2022-10-31T06:51:05;39.08;;;15.10;;
40252;SDS011;25972;51.854;4.534;2022-10-31T06:53:31;48.65;;;15.43;;
40252;SDS011;25972;51.854;4.534;2022-10-31T06:55:57;44.70;;;14.55;;
40252;SDS011;25972;51.854;4.534;2022-10-31T06:58:23;46.88;;;14.57;;
40252;SDS011;25972;51.854;4.534;2022-10-31T07:00:51;60.28;;;15.98;;
40252;SDS011;25972;51.854;4.534;2022-10-31T07:03:17;50.67;;;15.20;;
40252;SDS011;25972;51.854;4.534;2022-10-31T07:05:46;44.97;;;17.83;;
40252;SDS011;25972;51.854;4.534;2022-10-31T07:08:13;47.95;;;14.98;;
40252;SDS011;25972;51.854;4.534;2022-10-31T07:10:40;55.13;;;18.20;;
40252;SDS011;25972;51.854;4.534;2022-10-31T07:13:12;42.63;;;17.70;;
40252;SDS011;25972;51.854;4.534;2022-10-31T07:15:41;46.03;;;17.48;;
40252;SDS011;25972;51.854;4.534;2022-10-31T07:18:09;57.50;;;16.45;;
40252;SDS011;25972;51.854;4.534;2022-10-31T07:20:37;46.80;;;15.05;;
40252;SDS011;25972;51.854;4.534;2022-10-31T07:23:03;47.20;;;16.45;;
40252;SDS011;25972;51.854;4.534;2022-10-31T07:25:29;40.80;;;17.45;;
40252;SDS011;25972;51.854;4.534;2022-10-31T07:28:09;47.42;;;15.95;;
40252;SDS011;25972;51.854;4.534;2022-10-31T07:30:35;44.00;;;15.05;;
40252;SDS011;25972;51.854;4.534;2022-10-31T07:33:01;34.40;;;15.25;;
40252;SDS011;25972;51.854;4.534;2022-10-31T07:35:53;46.40;;;16.70;;
40252;SDS011;25972;51.854;4.534;2022-10-31T07:38:26;44.17;;;15.75;;
40252;SDS011;25972;51.854;4.534;2022-10-31T07:40:52;43.85;;;18.05;;
40252;SDS011;25972;51.854;4.534;2022-10-31T07:43:18;38.92;;;16.60;;
40252;SDS011;25972;51.854;4.534;2022-10-31T07:46:16;42.85;;;17.95;;
40252;SDS011;25972;51.854;4.534;2022-10-31T07:49:14;45.58;;;18.23;;
40252;SDS011;25972;51.854;4.534;2022-10-31T07:52:12;37.90;;;17.25;;
40252;SDS011;25972;51.854;4.534;2022-10-31T07:55:07;39.25;;;17.85;;
40252;SDS011;25972;51.854;4.534;2022-10-31T07:57:34;38.85;;;18.17;;
40252;SDS011;25972;51.854;4.534;2022-10-31T08:00:10;42.15;;;18.60;;
40252;SDS011;25972;51.854;4.534;2022-10-31T08:02:42;35.92;;;15.82;;
40252;SDS011;25972;51.854;4.534;2022-10-31T08:05:28;36.95;;;15.75;;
40252;SDS011;25972;51.854;4.534;2022-10-31T08:08:14;46.85;;;18.98;;
40252;SDS011;25972;51.854;4.534;2022-10-31T08:10:40;45.17;;;18.85;;
40252;SDS011;25972;51.854;4.534;2022-10-31T08:13:08;41.50;;;18.33;;
40252;SDS011;25972;51.854;4.534;2022-10-31T08:15:39;48.75;;;19.27;;
40252;SDS011;25972;51.854;4.534;2022-10-31T08:18:13;48.55;;;20.70;;
40252;SDS011;25972;51.854;4.534;2022-10-31T08:20:40;48.50;;;20.42;;
40252;SDS011;25972;51.854;4.534;2022-10-31T08:23:06;53.92;;;20.90;;
40252;SDS011;25972;51.854;4.534;2022-10-31T08:25:34;50.90;;;20.70;;
40252;SDS011;25972;51.854;4.534;2022-10-31T08:28:01;43.80;;;20.15;;
40252;SDS011;25972;51.854;4.534;2022-10-31T08:30:28;50.63;;;20.48;;
40252;SDS011;25972;51.854;4.534;2022-10-31T08:33:15;55.40;;;22.45;;
40252;SDS011;25972;51.854;4.534;2022-10-31T08:36:14;41.22;;;18.88;;
40252;SDS011;25972;51.854;4.534;2022-10-31T08:38:58;48.70;;;20.33;;
40252;SDS011;25972;51.854;4.534;2022-10-31T08:41:26;43.95;;;19.60;;
40252;SDS011;25972;51.854;4.534;2022-10-31T08:43:52;45.38;;;20.40;;
40252;SDS011;25972;51.854;4.534;2022-10-31T08:46:18;38.85;;;17.15;;
40252;SDS011;25972;51.854;4.534;2022-10-31T08:48:44;44.90;;;19.60;;
40252;SDS011;25972;51.854;4.534;2022-10-31T08:51:12;43.47;;;19.73;;
40252;SDS011;25972;51.854;4.534;2022-10-31T08:53:37;47.40;;;19.92;;
40252;SDS011;25972;51.854;4.534;2022-10-31T08:56:22;46.08;;;19.42;;
40252;SDS011;25972;51.854;4.534;2022-10-31T08:58:48;46.58;;;20.20;;
40252;SDS011;25972;51.854;4.534;2022-10-31T09:01:19;47.28;;;20.58;;
40252;SDS011;25972;51.854;4.534;2022-10-31T09:03:45;45.03;;;19.75;;
40252;SDS011;25972;51.854;4.534;2022-10-31T09:06:10;38.80;;;18.45;;
40252;SDS011;25972;51.854;4.534;2022-10-31T09:08:36;42.63;;;19.48;;
40252;SDS011;25972;51.854;4.534;2022-10-31T09:11:03;46.13;;;20.30;;
40252;SDS011;25972;51.854;4.534;2022-10-31T09:14:08;43.50;;;19.45;;
40252;SDS011;25972;51.854;4.534;2022-10-31T09:17:12;48.60;;;20.13;;
40252;SDS011;25972;51.854;4.534;2022-10-31T09:20:07;51.35;;;21.13;;
40252;SDS011;25972;51.854;4.534;2022-10-31T09:22:34;50.90;;;21.77;;
40252;SDS011;25972;51.854;4.534;2022-10-31T09:25:00;47.30;;;19.77;;
40252;SDS011;25972;51.854;4.534;2022-10-31T09:27:26;52.70;;;22.17;;
40252;SDS011;25972;51.854;4.534;2022-10-31T09:29:54;48.28;;;20.67;;
40252;SDS011;25972;51.854;4.534;2022-10-31T09:32:20;43.78;;;18.73;;
40252;SDS011;25972;51.854;4.534;2022-10-31T09:34:46;50.30;;;20.80;;
40252;SDS011;25972;51.854;4.534;2022-10-31T09:37:17;44.20;;;18.92;;
40252;SDS011;25972;51.854;4.534;2022-10-31T09:39:43;43.97;;;20.70;;
40252;SDS011;25972;51.854;4.534;2022-10-31T09:42:50;44.72;;;19.75;;
40252;SDS011;25972;51.854;4.534;2022-10-31T09:54:12;36.28;;;18.00;;
40252;SDS011;25972;51.854;4.534;2022-10-31T09:56:43;47.47;;;21.00;;
40252;SDS011;25972;51.854;4.534;2022-10-31T09:59:34;51.40;;;21.35;;
40252;SDS011;25972;51.854;4.534;2022-10-31T10:02:04;57.53;;;23.60;;
40252;SDS011;25972;51.854;4.534;2022-10-31T10:04:48;49.72;;;22.25;;
40252;SDS011;25972;51.854;4.534;2022-10-31T10:10:32;44.35;;;19.65;;
40252;SDS011;25972;51.854;4.534;2022-10-31T10:21:42;64.88;;;25.25;;
40252;SDS011;25972;51.854;4.534;2022-10-31T10:24:28;55.53;;;19.92;;
40252;SDS011;25972;51.854;4.534;2022-10-31T10:29:58;40.58;;;20.08;;
40252;SDS011;25972;51.854;4.534;2022-10-31T10:32:59;32.30;;;16.17;;
40252;SDS011;25972;51.854;4.534;2022-10-31T10:38:01;26.75;;;14.43;;
40252;SDS011;25972;51.854;4.534;2022-10-31T10:40:34;29.00;;;16.08;;
40252;SDS011;25972;51.854;4.534;2022-10-31T10:59:53;29.58;;;14.13;;
40252;SDS011;25972;51.854;4.534;2022-10-31T11:02:20;30.98;;;14.23;;
40252;SDS011;25972;51.854;4.534;2022-10-31T11:04:57;29.80;;;14.07;;
40252;SDS011;25972;51.854;4.534;2022-10-31T11:07:25;27.63;;;14.02;;
40252;SDS011;25972;51.854;4.534;2022-10-31T11:10:03;31.15;;;14.73;;
40252;SDS011;25972;51.854;4.534;2022-10-31T11:12:33;29.10;;;15.50;;
40252;SDS011;25972;51.854;4.534;2022-10-31T11:15:02;30.50;;;16.05;;
40252;SDS011;25972;51.854;4.534;2022-10-31T11:17:36;28.13;;;13.75;;
40252;SDS011;25972;51.854;4.534;2022-10-31T11:22:40;31.15;;;15.82;;
40252;SDS011;25972;51.854;4.534;2022-10-31T11:25:41;32.80;;;15.90;;
40252;SDS011;25972;51.854;4.534;2022-10-31T11:28:08;33.28;;;16.30;;
40252;SDS011;25972;51.854;4.534;2022-10-31T11:30:47;33.35;;;16.00;;
40252;SDS011;25972;51.854;4.534;2022-10-31T11:33:24;29.63;;;15.88;;
40252;SDS011;25972;51.854;4.534;2022-10-31T11:35:59;32.42;;;16.85;;
40252;SDS011;25972;51.854;4.534;2022-10-31T11:38:35;34.22;;;17.45;;
40252;SDS011;25972;51.854;4.534;2022-10-31T11:41:11;33.55;;;17.50;;
40252;SDS011;25972;51.854;4.534;2022-10-31T11:43:38;29.50;;;15.38;;
40252;SDS011;25972;51.854;4.534;2022-10-31T11:46:10;31.77;;;16.90;;
40252;SDS011;25972;51.854;4.534;2022-10-31T11:48:46;35.75;;;16.23;;
40252;SDS011;25972;51.854;4.534;2022-10-31T11:51:20;35.95;;;16.67;;
40252;SDS011;25972;51.854;4.534;2022-10-31T11:53:52;36.70;;;18.17;;
40252;SDS011;25972;51.854;4.534;2022-10-31T11:56:19;34.40;;;17.65;;
40252;SDS011;25972;51.854;4.534;2022-10-31T11:58:55;30.90;;;17.20;;
40252;SDS011;25972;51.854;4.534;2022-10-31T12:01:24;38.92;;;18.02;;
40252;SDS011;25972;51.854;4.534;2022-10-31T12:04:06;33.50;;;18.77;;
40252;SDS011;25972;51.854;4.534;2022-10-31T12:06:35;35.40;;;17.27;;
40252;SDS011;25972;51.854;4.534;2022-10-31T12:09:09;37.00;;;18.10;;
40252;SDS011;25972;51.854;4.534;2022-10-31T12:42:51;40.97;;;19.55;;
40252;SDS011;25972;51.854;4.534;2022-10-31T12:57:42;45.67;;;21.70;;
40252;SDS011;25972;51.854;4.534;2022-10-31T13:00:14;52.55;;;22.08;;
40252;SDS011;25972;51.854;4.534;2022-10-31T13:08:10;47.80;;;20.15;;
40252;SDS011;25972;51.854;4.534;2022-10-31T13:10:52;45.08;;;20.38;;
40252;SDS011;25972;51.854;4.534;2022-10-31T13:13:54;48.20;;;21.85;;
40252;SDS011;25972;51.854;4.534;2022-10-31T13:16:33;41.97;;;21.80;;
40252;SDS011;25972;51.854;4.534;2022-10-31T13:19:18;43.72;;;20.63;;
40252;SDS011;25972;51.854;4.534;2022-10-31T13:24:27;41.90;;;19.75;;
40252;SDS011;25972;51.854;4.534;2022-10-31T13:27:14;45.23;;;20.40;;
40252;SDS011;25972;51.854;4.534;2022-10-31T13:30:29;44.70;;;19.90;;
40252;SDS011;25972;51.854;4.534;2022-10-31T13:32:37;31.20;;;12.98;;
40252;SDS011;25972;51.854;4.534;2022-10-31T13:35:40;44.30;;;20.75;;
40252;SDS011;25972;51.854;4.534;2022-10-31T13:38:10;44.30;;;23.42;;
40252;SDS011;25972;51.854;4.534;2022-10-31T13:41:03;42.83;;;21.05;;
40252;SDS011;25972;51.854;4.534;2022-10-31T13:43:39;48.55;;;23.05;;
40252;SDS011;25972;51.854;4.534;2022-10-31T13:46:25;46.08;;;22.42;;
40252;SDS011;25972;51.854;4.534;2022-10-31T13:48:57;44.72;;;19.83;;
40252;SDS011;25972;51.854;4.534;2022-10-31T13:51:24;43.55;;;20.00;;
40252;SDS011;25972;51.854;4.534;2022-10-31T13:59:21;47.78;;;21.15;;
40252;SDS011;25972;51.854;4.534;2022-10-31T14:01:48;52.67;;;21.58;;
40252;SDS011;25972;51.854;4.534;2022-10-31T14:04:21;45.03;;;23.15;;
40252;SDS011;25972;51.854;4.534;2022-10-31T14:20:42;49.13;;;21.70;;
40252;SDS011;25972;51.854;4.534;2022-10-31T14:29:38;47.50;;;22.40;;
40252;SDS011;25972;51.854;4.534;2022-10-31T14:31:41;48.08;;;22.83;;
40252;SDS011;25972;51.854;4.534;2022-10-31T14:51:13;43.90;;;22.27;;
40252;SDS011;25972;51.854;4.534;2022-10-31T14:53:46;48.88;;;21.90;;
40252;SDS011;25972;51.854;4.534;2022-10-31T14:56:22;43.92;;;22.20;;
40252;SDS011;25972;51.854;4.534;2022-10-31T14:58:56;46.42;;;23.50;;
40252;SDS011;25972;51.854;4.534;2022-10-31T15:03:55;53.42;;;26.35;;
40252;SDS011;25972;51.854;4.534;2022-10-31T15:06:30;52.55;;;26.48;;
40252;SDS011;25972;51.854;4.534;2022-10-31T15:09:03;51.55;;;26.10;;
40252;SDS011;25972;51.854;4.534;2022-10-31T15:11:29;52.03;;;25.83;;
40252;SDS011;25972;51.854;4.534;2022-10-31T15:14:05;47.40;;;23.40;;
40252;SDS011;25972;51.854;4.534;2022-10-31T15:16:46;40.60;;;21.30;;
40252;SDS011;25972;51.854;4.534;2022-10-31T15:19:14;44.60;;;23.52;;
40252;SDS011;25972;51.854;4.534;2022-10-31T15:21:45;53.50;;;24.02;;
40252;SDS011;25972;51.854;4.534;2022-10-31T15:24:12;48.03;;;23.50;;
40252;SDS011;25972;51.854;4.534;2022-10-31T15:26:44;44.05;;;22.95;;
40252;SDS011;25972;51.854;4.534;2022-10-31T15:29:14;47.65;;;26.23;;
40252;SDS011;25972;51.854;4.534;2022-10-31T15:31:54;43.22;;;22.15;;
40252;SDS011;25972;51.854;4.534;2022-10-31T15:37:01;53.58;;;24.02;;
40252;SDS011;25972;51.854;4.534;2022-10-31T15:39:27;46.67;;;23.10;;
40252;SDS011;25972;51.854;4.534;2022-10-31T15:41:54;47.38;;;23.13;;
40252;SDS011;25972;51.854;4.534;2022-10-31T15:44:26;47.33;;;24.73;;
40252;SDS011;25972;51.854;4.534;2022-10-31T15:47:02;48.42;;;25.02;;
40252;SDS011;25972;51.854;4.534;2022-10-31T15:52:04;56.08;;;24.65;;
40252;SDS011;25972;51.854;4.534;2022-10-31T15:54:53;47.20;;;22.40;;
40252;SDS011;25972;51.854;4.534;2022-10-31T15:57:21;45.25;;;22.63;;
40252;SDS011;25972;51.854;4.534;2022-10-31T15:59:48;50.58;;;24.17;;
40252;SDS011;25972;51.854;4.534;2022-10-31T16:02:18;47.50;;;23.27;;
40252;SDS011;25972;51.854;4.534;2022-10-31T16:04:57;46.83;;;23.35;;
40252;SDS011;25972;51.854;4.534;2022-10-31T16:07:25;46.25;;;23.63;;
40252;SDS011;25972;51.854;4.534;2022-10-31T16:10:01;49.17;;;24.40;;
40252;SDS011;25972;51.854;4.534;2022-10-31T16:12:33;57.92;;;25.90;;
40252;SDS011;25972;51.854;4.534;2022-10-31T16:15:02;54.08;;;25.58;;
40252;SDS011;25972;51.854;4.534;2022-10-31T16:17:29;48.05;;;23.73;;
40252;SDS011;25972;51.854;4.534;2022-10-31T16:20:05;46.97;;;25.52;;
40252;SDS011;25972;51.854;4.534;2022-10-31T16:22:37;54.65;;;25.05;;
40252;SDS011;25972;51.854;4.534;2022-10-31T16:25:08;47.17;;;23.90;;
40252;SDS011;25972;51.854;4.534;2022-10-31T16:27:36;48.67;;;25.33;;
40252;SDS011;25972;51.854;4.534;2022-10-31T16:30:24;58.88;;;25.10;;
40252;SDS011;25972;51.854;4.534;2022-10-31T16:33:03;44.03;;;25.70;;
40252;SDS011;25972;51.854;4.534;2022-10-31T16:35:37;52.50;;;26.02;;
40252;SDS011;25972;51.854;4.534;2022-10-31T16:38:04;45.97;;;23.50;;
40252;SDS011;25972;51.854;4.534;2022-10-31T16:40:31;37.15;;;21.10;;
40252;SDS011;25972;51.854;4.534;2022-10-31T16:42:58;41.40;;;20.15;;
40252;SDS011;25972;51.854;4.534;2022-10-31T16:45:26;40.63;;;20.60;;
40252;SDS011;25972;51.854;4.534;2022-10-31T16:47:53;35.97;;;18.60;;
40252;SDS011;25972;51.854;4.534;2022-10-31T16:50:21;36.22;;;17.70;;
40252;SDS011;25972;51.854;4.534;2022-10-31T16:52:48;42.67;;;17.88;;
40252;SDS011;25972;51.854;4.534;2022-10-31T16:55:14;35.28;;;17.10;;
40252;SDS011;25972;51.854;4.534;2022-10-31T16:57:45;36.28;;;14.95;;
40252;SDS011;25972;51.854;4.534;2022-10-31T17:02:41;35.15;;;15.50;;
40252;SDS011;25972;51.854;4.534;2022-10-31T17:05:09;32.55;;;15.18;;
40252;SDS011;25972;51.854;4.534;2022-10-31T17:07:37;32.42;;;15.95;;
40252;SDS011;25972;51.854;4.534;2022-10-31T17:10:03;28.58;;;14.80;;
40252;SDS011;25972;51.854;4.534;2022-10-31T17:12:29;29.23;;;13.27;;
40252;SDS011;25972;51.854;4.534;2022-10-31T17:14:56;33.20;;;14.82;;
40252;SDS011;25972;51.854;4.534;2022-10-31T17:17:22;32.17;;;15.23;;
40252;SDS011;25972;51.854;4.534;2022-10-31T17:19:47;36.92;;;15.27;;
40252;SDS011;25972;51.854;4.534;2022-10-31T17:22:13;31.75;;;15.48;;
40252;SDS011;25972;51.854;4.534;2022-10-31T17:24:39;25.58;;;13.25;;
40252;SDS011;25972;51.854;4.534;2022-10-31T17:27:05;26.55;;;12.15;;
40252;SDS011;25972;51.854;4.534;2022-10-31T17:29:31;26.35;;;13.73;;
40252;SDS011;25972;51.854;4.534;2022-10-31T17:31:57;28.85;;;14.38;;
40252;SDS011;25972;51.854;4.534;2022-10-31T17:34:24;27.92;;;12.63;;
40252;SDS011;25972;51.854;4.534;2022-10-31T17:36:50;26.67;;;13.13;;
40252;SDS011;25972;51.854;4.534;2022-10-31T17:39:17;26.52;;;13.35;;
40252;SDS011;25972;51.854;4.534;2022-10-31T17:41:44;24.10;;;12.32;;
40252;SDS011;25972;51.854;4.534;2022-10-31T17:44:10;29.80;;;13.15;;
40252;SDS011;25972;51.854;4.534;2022-10-31T17:46:37;27.23;;;12.88;;
40252;SDS011;25972;51.854;4.534;2022-10-31T17:49:03;23.92;;;12.23;;
40252;SDS011;25972;51.854;4.534;2022-10-31T17:51:31;29.73;;;11.68;;
40252;SDS011;25972;51.854;4.534;2022-10-31T17:53:57;25.65;;;12.73;;
40252;SDS011;25972;51.854;4.534;2022-10-31T17:56:23;26.40;;;13.50;;
40252;SDS011;25972;51.854;4.534;2022-10-31T17:58:49;27.05;;;13.98;;
40252;SDS011;25972;51.854;4.534;2022-10-31T18:01:16;26.00;;;11.75;;
40252;SDS011;25972;51.854;4.534;2022-10-31T18:03:42;26.77;;;13.10;;
40252;SDS011;25972;51.854;4.534;2022-10-31T18:06:09;29.08;;;12.82;;
40252;SDS011;25972;51.854;4.534;2022-10-31T18:08:36;29.75;;;11.80;;
40252;SDS011;25972;51.854;4.534;2022-10-31T18:11:07;27.83;;;12.23;;
40252;SDS011;25972;51.854;4.534;2022-10-31T18:13:39;27.48;;;12.80;;
40252;SDS011;25972;51.854;4.534;2022-10-31T18:16:06;28.23;;;13.48;;
40252;SDS011;25972;51.854;4.534;2022-10-31T18:18:36;26.10;;;13.98;;